Time;durP1;ratioP1;P1;durP2;ratioP2;P2;SDS_P1;SDS_P2;PMS_P1;PMS_P2;Temp;Humidity;BMP_temperature;BMP_pressure;BME280_temperature;BME280_humidity;BME280_pressure;Samples;Min_cycle;Max_cycle;Signal;HPM_P1;HPM_P2
2022/04/14 00:01:17;;;;;;;10.48;7.50;;;12.30;99.90;;;;;;5051003;28;20210;-76
2022/04/14 00:03:45;;;;;;;11.48;8.43;;;12.20;99.90;;;;;;5052177;28;20234;-77
2022/04/14 00:06:12;;;;;;;8.95;7.38;;;12.20;99.90;;;;;;5054309;28;20202;-77
2022/04/14 00:08:39;;;;;;;8.20;6.97;;;12.20;99.90;;;;;;5051372;28;20211;-76
2022/04/14 00:11:06;;;;;;;7.70;6.90;;;12.20;99.90;;;;;;5048853;28;20210;-75
2022/04/14 00:13:34;;;;;;;8.15;6.70;;;12.20;99.90;;;;;;5046477;28;20218;-76
2022/04/14 00:16:01;;;;;;;10.65;7.68;;;12.20;99.90;;;;;;5054437;28;20503;-76
2022/04/14 00:18:28;;;;;;;10.25;8.45;;;12.20;99.90;;;;;;5054603;28;20714;-75
2022/04/14 00:20:57;;;;;;;10.23;7.57;;;12.20;99.90;;;;;;5056827;28;20210;-75
2022/04/14 00:23:24;;;;;;;11.10;7.13;;;12.20;99.90;;;;;;5056581;28;20233;-76
2022/04/14 00:25:51;;;;;;;10.05;7.78;;;12.20;99.90;;;;;;5056462;28;20195;-79
2022/04/14 00:28:18;;;;;;;10.23;7.97;;;12.20;99.90;;;;;;5055058;28;20221;-77
2022/04/14 00:30:45;;;;;;;11.43;7.40;;;12.10;99.90;;;;;;5058115;28;20206;-75
2022/04/14 00:33:12;;;;;;;8.93;7.45;;;12.10;99.90;;;;;;5054815;28;20612;-75
2022/04/14 00:35:40;;;;;;;9.60;7.72;;;12.10;99.90;;;;;;5056225;28;20207;-78
2022/04/14 00:38:08;;;;;;;7.80;6.95;;;12.00;99.90;;;;;;5055822;28;20230;-75
2022/04/14 00:40:35;;;;;;;7.53;6.68;;;11.90;99.90;;;;;;5057459;28;20191;-77
2022/04/14 00:43:02;;;;;;;7.38;6.10;;;12.00;99.90;;;;;;5057719;28;20230;-79
2022/04/14 00:45:30;;;;;;;7.22;5.97;;;11.90;99.90;;;;;;5057354;28;20218;-77
2022/04/14 00:47:57;;;;;;;9.82;5.97;;;11.90;99.90;;;;;;5056465;28;20223;-77
2022/04/14 00:50:24;;;;;;;7.35;5.60;;;11.90;99.90;;;;;;5058139;28;20199;-75
2022/04/14 00:52:51;;;;;;;8.00;6.90;;;11.90;99.90;;;;;;5057959;28;20227;-77
2022/04/14 00:55:20;;;;;;;7.47;6.05;;;11.90;99.90;;;;;;5050957;28;20195;-76
2022/04/14 00:57:47;;;;;;;7.80;6.50;;;11.80;99.90;;;;;;5055275;28;20233;-78
2022/04/14 01:00:15;;;;;;;9.32;7.90;;;11.80;99.90;;;;;;5059968;28;20471;-79
2022/04/14 01:02:42;;;;;;;8.27;7.35;;;11.80;99.90;;;;;;5056846;28;20234;-76
2022/04/14 01:05:10;;;;;;;7.97;6.50;;;11.80;99.90;;;;;;5056533;28;20210;-75
2022/04/14 01:07:38;;;;;;;7.75;6.63;;;11.80;99.90;;;;;;5055868;28;20227;-77
2022/04/14 01:10:06;;;;;;;9.07;6.57;;;11.80;99.90;;;;;;5058244;28;20661;-77
2022/04/14 01:12:36;;;;;;;7.50;6.68;;;11.80;99.90;;;;;;5053035;28;20230;-77
2022/04/14 01:15:03;;;;;;;7.78;6.57;;;11.80;99.90;;;;;;5054960;28;20202;-75
2022/04/14 01:17:30;;;;;;;8.70;7.47;;;11.80;99.90;;;;;;5052343;28;20223;-75
2022/04/14 01:19:57;;;;;;;8.35;6.53;;;11.80;99.90;;;;;;5053465;28;20215;-76
2022/04/14 01:22:30;;;;;;;7.55;6.20;;;11.80;99.90;;;;;;5058163;28;20215;-79
2022/04/14 01:24:59;;;;;;;8.93;6.53;;;11.80;99.90;;;;;;5056436;28;20229;-76
2022/04/14 01:27:27;;;;;;;8.02;5.97;;;11.80;99.90;;;;;;5055161;28;20195;-75
2022/04/14 01:29:54;;;;;;;7.32;6.05;;;11.80;99.90;;;;;;5052615;28;20187;-78
2022/04/14 01:32:22;;;;;;;7.43;6.30;;;11.80;99.90;;;;;;5055431;28;20207;-79
2022/04/14 01:34:50;;;;;;;7.20;6.30;;;11.80;99.90;;;;;;5054298;28;20206;-78
2022/04/14 01:37:17;;;;;;;7.22;5.78;;;11.80;99.90;;;;;;5053474;28;20589;-79
2022/04/14 01:39:45;;;;;;;8.35;6.50;;;11.80;99.90;;;;;;5050385;28;20215;-79
2022/04/14 01:42:13;;;;;;;7.22;6.13;;;11.80;99.90;;;;;;5056512;28;20215;-77
2022/04/14 01:44:40;;;;;;;6.85;5.82;;;11.80;99.90;;;;;;5046572;28;20215;-75
2022/04/14 01:47:08;;;;;;;6.78;5.70;;;11.80;99.90;;;;;;5050122;28;20198;-75
2022/04/14 01:49:35;;;;;;;6.32;5.65;;;11.80;99.90;;;;;;5049431;28;20230;-75
2022/04/14 01:52:02;;;;;;;7.57;6.13;;;11.80;99.90;;;;;;5053444;28;20226;-76
2022/04/14 01:54:29;;;;;;;6.35;5.35;;;11.80;99.90;;;;;;5052501;28;20219;-80
2022/04/14 01:56:56;;;;;;;9.23;6.88;;;11.80;99.90;;;;;;5056306;28;20203;-75
2022/04/14 01:59:25;;;;;;;8.90;6.05;;;11.80;99.90;;;;;;5054936;28;20219;-77
2022/04/14 02:01:52;;;;;;;6.78;5.68;;;11.80;99.90;;;;;;5055900;28;20215;-78
2022/04/14 02:04:19;;;;;;;7.50;6.53;;;11.70;99.90;;;;;;5052214;28;20222;-77
2022/04/14 02:06:47;;;;;;;7.07;5.70;;;11.70;99.90;;;;;;5056245;28;20436;-79
2022/04/14 02:09:14;;;;;;;6.82;6.05;;;11.70;99.90;;;;;;5055259;28;20207;-77
2022/04/14 02:11:41;;;;;;;7.30;6.15;;;11.70;99.90;;;;;;5055879;28;20230;-78
2022/04/14 02:14:08;;;;;;;6.88;6.03;;;11.70;99.90;;;;;;5055812;28;20233;-79
2022/04/14 02:16:36;;;;;;;6.72;6.03;;;11.70;99.90;;;;;;5054272;28;20199;-78
2022/04/14 02:19:03;;;;;;;8.63;6.20;;;11.70;99.90;;;;;;5052248;28;20226;-78
2022/04/14 02:21:31;;;;;;;7.15;6.18;;;11.60;99.90;;;;;;5049965;28;20218;-75
2022/04/14 02:23:58;;;;;;;6.75;6.05;;;11.60;99.90;;;;;;5049378;28;20250;-78
2022/04/14 02:26:25;;;;;;;6.85;6.15;;;11.50;99.90;;;;;;5052449;28;20187;-77
2022/04/14 02:28:54;;;;;;;8.38;6.43;;;11.50;99.90;;;;;;5051413;28;20228;-76
2022/04/14 02:31:21;;;;;;;7.68;6.43;;;11.40;99.90;;;;;;5051046;28;20218;-77
2022/04/14 02:33:49;;;;;;;6.55;5.88;;;11.40;99.90;;;;;;5052578;28;20214;-78
2022/04/14 02:36:17;;;;;;;6.75;5.50;;;11.50;99.90;;;;;;5052676;28;20187;-77
2022/04/14 02:38:45;;;;;;;6.03;5.43;;;11.50;99.90;;;;;;5052746;28;20285;-75
2022/04/14 02:41:12;;;;;;;6.78;5.82;;;11.50;99.90;;;;;;5053658;28;20197;-75
2022/04/14 02:43:39;;;;;;;8.95;6.13;;;11.50;99.90;;;;;;5055123;28;20219;-76
2022/04/14 02:46:06;;;;;;;5.75;5.15;;;11.50;99.90;;;;;;5054012;28;20276;-76
2022/04/14 02:48:33;;;;;;;7.40;5.90;;;11.50;99.90;;;;;;5056744;28;20229;-76
2022/04/14 02:51:02;;;;;;;6.82;5.97;;;11.50;99.90;;;;;;5054865;28;20221;-76
2022/04/14 02:53:29;;;;;;;8.77;6.07;;;11.50;99.90;;;;;;5052647;28;20210;-77
2022/04/14 02:55:56;;;;;;;7.43;5.88;;;11.40;99.90;;;;;;5050688;28;20207;-76
2022/04/14 02:58:23;;;;;;;8.13;6.30;;;11.40;99.90;;;;;;5053560;28;20221;-78
2022/04/14 03:00:50;;;;;;;6.80;6.10;;;11.30;99.90;;;;;;5054546;28;20214;-76
2022/04/14 03:03:17;;;;;;;7.00;6.30;;;11.30;99.90;;;;;;5052748;28;20234;-76
2022/04/14 03:05:44;;;;;;;8.27;5.85;;;11.30;99.90;;;;;;5051160;28;20225;-76
2022/04/14 03:08:13;;;;;;;6.70;6.00;;;11.20;99.90;;;;;;5051833;28;20250;-78
2022/04/14 03:10:40;;;;;;;6.55;5.95;;;11.20;99.90;;;;;;5054135;28;20207;-78
2022/04/14 03:13:07;;;;;;;6.82;5.47;;;11.20;99.90;;;;;;5067294;22;20230;-76
2022/04/14 03:15:34;;;;;;;7.15;5.35;;;11.20;99.90;;;;;;5048114;28;20191;-77
2022/04/14 03:18:01;;;;;;;6.45;5.70;;;11.20;99.90;;;;;;5051784;28;20229;-76
2022/04/14 03:20:28;;;;;;;6.65;5.88;;;11.20;99.90;;;;;;5054802;28;20213;-76
2022/04/14 03:22:56;;;;;;;5.90;5.30;;;11.20;99.90;;;;;;5037963;28;20761;-76
2022/04/14 03:25:25;;;;;;;5.90;5.30;;;11.20;99.90;;;;;;5033831;28;20578;-76
2022/04/14 03:27:52;;;;;;;6.88;5.60;;;11.20;99.90;;;;;;5030388;28;20211;-76
2022/04/14 03:30:19;;;;;;;6.28;5.05;;;11.20;99.90;;;;;;5027930;28;20195;-76
2022/04/14 03:32:47;;;;;;;7.00;5.47;;;11.20;99.90;;;;;;5029478;28;20219;-76
2022/04/14 03:35:15;;;;;;;5.80;5.25;;;11.10;99.90;;;;;;5031489;28;20200;-76
2022/04/14 03:37:43;;;;;;;6.38;5.78;;;11.10;99.90;;;;;;5031184;28;20214;-76
2022/04/14 03:40:11;;;;;;;6.32;5.65;;;11.10;99.90;;;;;;5033611;28;20250;-76
2022/04/14 03:42:40;;;;;;;6.57;5.88;;;11.10;99.90;;;;;;5030328;28;20257;-76
2022/04/14 03:45:08;;;;;;;7.38;6.38;;;11.10;99.90;;;;;;5030031;28;20219;-76
2022/04/14 03:47:35;;;;;;;6.68;5.72;;;11.10;99.90;;;;;;5029696;28;20203;-76
2022/04/14 03:50:03;;;;;;;7.10;6.40;;;11.10;99.90;;;;;;5027145;28;20754;-76
2022/04/14 03:52:30;;;;;;;7.57;6.57;;;11.00;99.90;;;;;;5031329;28;20696;-76
2022/04/14 03:54:57;;;;;;;7.13;5.97;;;10.90;99.90;;;;;;5029455;28;20220;-76
2022/04/14 03:57:24;;;;;;;6.25;5.65;;;10.80;99.90;;;;;;5031018;28;20612;-76
2022/04/14 03:59:53;;;;;;;7.68;6.20;;;10.80;99.90;;;;;;5030848;28;20226;-76
2022/04/14 04:02:20;;;;;;;7.35;5.57;;;10.70;99.90;;;;;;5029747;28;20619;-76
2022/04/14 04:04:47;;;;;;;7.00;6.30;;;10.80;99.90;;;;;;5029741;28;20270;-76
2022/04/14 04:07:14;;;;;;;8.70;6.85;;;10.80;99.90;;;;;;5033228;28;20209;-76
2022/04/14 04:09:41;;;;;;;7.55;6.75;;;10.80;99.90;;;;;;5026658;28;20219;-77
2022/04/14 04:12:10;;;;;;;8.23;6.20;;;10.80;99.90;;;;;;5032332;28;20206;-76
2022/04/14 04:14:37;;;;;;;6.20;5.60;;;10.80;99.90;;;;;;5030112;28;20629;-76
2022/04/14 04:17:06;;;;;;;6.22;5.63;;;10.80;99.90;;;;;;5029830;28;20196;-77
2022/04/14 04:19:33;;;;;;;7.45;6.30;;;10.80;99.90;;;;;;5027026;28;20223;-76
2022/04/14 04:22:00;;;;;;;6.28;5.68;;;10.80;99.90;;;;;;5030308;28;20191;-76
2022/04/14 04:24:27;;;;;;;7.00;6.18;;;10.80;99.90;;;;;;5029989;28;20218;-77
2022/04/14 04:26:54;;;;;;;6.72;5.55;;;10.80;99.90;;;;;;5027229;28;20249;-77
2022/04/14 04:29:21;;;;;;;9.02;6.40;;;10.80;99.90;;;;;;5031638;28;20222;-77
2022/04/14 04:31:48;;;;;;;7.40;6.65;;;10.80;99.90;;;;;;5022800;28;20207;-77
2022/04/14 04:34:17;;;;;;;6.95;6.25;;;10.80;99.90;;;;;;5030485;28;20219;-76
2022/04/14 04:36:45;;;;;;;6.65;5.75;;;10.80;99.90;;;;;;5026602;28;20250;-76
2022/04/14 04:39:12;;;;;;;6.82;6.13;;;10.70;99.90;;;;;;5028629;28;20227;-76
2022/04/14 04:41:39;;;;;;;6.50;5.90;;;10.70;99.90;;;;;;5027906;28;20268;-76
2022/04/14 04:44:06;;;;;;;6.45;5.85;;;10.70;99.90;;;;;;5028438;28;20227;-77
2022/04/14 04:46:33;;;;;;;5.50;5.00;;;10.70;99.90;;;;;;5030284;28;20360;-77
2022/04/14 04:49:00;;;;;;;6.10;5.38;;;10.70;99.90;;;;;;5026221;28;20278;-77
2022/04/14 04:51:29;;;;;;;6.03;5.43;;;10.70;99.90;;;;;;5025687;28;20611;-76
2022/04/14 04:53:56;;;;;;;7.38;5.50;;;10.70;99.90;;;;;;5025542;28;20220;-76
2022/04/14 04:56:23;;;;;;;6.18;5.57;;;10.70;99.90;;;;;;5030495;28;20202;-77
2022/04/14 04:58:50;;;;;;;6.35;5.60;;;10.70;99.90;;;;;;5037519;28;20222;-76
2022/04/14 05:01:18;;;;;;;5.53;5.03;;;10.70;99.90;;;;;;5040052;28;20301;-76
2022/04/14 05:03:45;;;;;;;6.80;6.05;;;10.70;99.90;;;;;;5032405;28;20588;-76
2022/04/14 05:06:13;;;;;;;6.00;5.32;;;10.70;99.90;;;;;;5041443;28;20206;-75
2022/04/14 05:08:41;;;;;;;6.13;5.53;;;10.70;99.90;;;;;;5028380;28;20223;-76
2022/04/14 05:11:08;;;;;;;6.85;6.03;;;10.80;99.90;;;;;;5029566;28;20231;-76
2022/04/14 05:13:35;;;;;;;7.00;4.97;;;10.90;99.90;;;;;;5028944;28;20251;-76
2022/04/14 05:16:04;;;;;;;6.32;5.63;;;11.10;99.90;;;;;;5023209;28;20215;-76
2022/04/14 05:18:31;;;;;;;5.55;5.05;;;11.30;99.90;;;;;;5037252;28;20395;-76
2022/04/14 05:20:58;;;;;;;5.70;5.07;;;11.50;99.90;;;;;;5038406;28;20211;-77
2022/04/14 05:23:25;;;;;;;7.60;5.88;;;11.70;99.90;;;;;;5039879;28;20285;-76
2022/04/14 05:25:54;;;;;;;6.20;5.60;;;11.90;99.90;;;;;;5032462;28;20202;-77
2022/04/14 05:28:21;;;;;;;8.93;6.68;;;12.10;99.90;;;;;;5033421;28;20256;-76
2022/04/14 05:30:48;;;;;;;7.10;6.40;;;12.30;99.90;;;;;;5035216;28;20187;-76
2022/04/14 05:33:16;;;;;;;7.38;5.53;;;12.40;99.90;;;;;;5036134;28;20215;-77
2022/04/14 05:35:45;;;;;;;5.47;4.97;;;12.60;99.90;;;;;;5035633;28;20199;-76
2022/04/14 05:38:12;;;;;;;6.43;5.70;;;12.70;99.90;;;;;;5032280;28;20261;-77
2022/04/14 05:40:41;;;;;;;7.00;6.35;;;12.90;99.90;;;;;;5041595;28;20238;-77
2022/04/14 05:43:14;;;;;;;6.65;6.00;;;13.00;99.90;;;;;;5032724;28;20771;-76
2022/04/14 05:45:44;;;;;;;6.97;5.95;;;13.10;99.90;;;;;;5040481;28;20203;-77
2022/04/14 05:48:13;;;;;;;7.35;6.25;;;13.10;99.90;;;;;;5037909;28;20739;-78
2022/04/14 05:50:40;;;;;;;6.60;5.90;;;13.30;99.90;;;;;;5033804;28;20199;-78
2022/04/14 05:53:07;;;;;;;6.15;5.15;;;13.50;99.90;;;;;;5038585;28;20289;-77
2022/04/14 05:55:35;;;;;;;6.22;5.00;;;13.80;99.90;;;;;;5042958;28;20249;-77
2022/04/14 05:58:03;;;;;;;6.35;5.72;;;14.00;99.90;;;;;;5036757;28;20199;-78
2022/04/14 06:00:32;;;;;;;7.03;5.88;;;14.20;99.90;;;;;;5036497;28;20226;-77
2022/04/14 06:02:59;;;;;;;6.70;6.10;;;14.20;99.90;;;;;;5039744;28;20322;-77
2022/04/14 06:05:27;;;;;;;7.30;5.78;;;14.10;99.90;;;;;;5034831;28;20595;-77
2022/04/14 06:07:54;;;;;;;6.85;6.05;;;14.30;99.90;;;;;;5038861;28;20195;-78
2022/04/14 06:10:22;;;;;;;5.82;5.22;;;14.50;99.90;;;;;;5038817;28;20311;-77
2022/04/14 06:12:49;;;;;;;6.90;5.82;;;14.60;99.90;;;;;;5029933;28;20224;-77
2022/04/14 06:15:16;;;;;;;6.30;5.70;;;14.80;99.90;;;;;;5031486;28;20215;-76
2022/04/14 06:17:45;;;;;;;5.97;5.40;;;14.90;99.90;;;;;;5026891;28;20203;-76
2022/04/14 06:20:12;;;;;;;6.05;5.45;;;15.00;99.90;;;;;;5030657;28;20220;-77
2022/04/14 06:22:40;;;;;;;5.82;5.22;;;15.10;99.90;;;;;;5031358;28;20216;-77
2022/04/14 06:25:12;;;;;;;8.30;5.03;;;15.20;99.90;;;;;;5031036;28;20230;-77
2022/04/14 06:27:40;;;;;;;5.35;4.72;;;15.30;99.90;;;;;;5032016;28;20222;-77
2022/04/14 06:30:08;;;;;;;6.00;5.40;;;15.60;99.90;;;;;;5025912;28;20765;-77
2022/04/14 06:32:36;;;;;;;5.68;5.18;;;15.70;99.90;;;;;;5031303;28;20223;-77
2022/04/14 06:35:06;;;;;;;5.68;5.03;;;15.90;99.90;;;;;;5023728;28;20710;-76
2022/04/14 06:37:33;;;;;;;5.80;5.25;;;16.00;99.90;;;;;;5024672;28;20208;-77
2022/04/14 06:40:00;;;;;;;5.72;5.13;;;16.10;99.90;;;;;;5030611;28;20233;-76
2022/04/14 06:42:27;;;;;;;6.07;4.90;;;16.20;99.90;;;;;;5025566;28;20211;-77
2022/04/14 06:44:58;;;;;;;6.75;5.38;;;16.20;99.90;;;;;;5024301;28;20223;-76
2022/04/14 06:47:26;;;;;;;7.28;5.18;;;16.20;99.90;;;;;;5022447;28;20228;-76
2022/04/14 06:49:53;;;;;;;5.63;5.13;;;16.40;99.90;;;;;;5024661;28;20417;-76
2022/04/14 06:52:22;;;;;;;6.47;5.50;;;16.50;99.90;;;;;;5018678;28;20318;-75
2022/04/14 06:54:49;;;;;;;5.93;5.28;;;16.70;99.90;;;;;;5022359;28;20713;-75
2022/04/14 06:57:18;;;;;;;5.57;4.65;;;16.80;99.90;;;;;;5026817;28;20195;-75
2022/04/14 06:59:45;;;;;;;6.80;5.30;;;16.90;99.90;;;;;;5018985;28;20220;-76
2022/04/14 07:02:12;;;;;;;7.90;5.68;;;16.90;99.90;;;;;;5025840;28;20703;-75
2022/04/14 07:04:39;;;;;;;5.07;4.68;;;17.10;99.90;;;;;;5018769;28;20461;-73
2022/04/14 07:07:06;;;;;;;6.10;4.80;;;17.20;99.90;;;;;;5028120;28;20196;-76
2022/04/14 07:09:36;;;;;;;6.63;6.00;;;17.40;99.90;;;;;;5022078;28;20256;-76
2022/04/14 07:12:04;;;;;;;7.00;5.30;;;17.40;99.90;;;;;;5024464;28;20219;-76
2022/04/14 07:14:31;;;;;;;5.90;5.40;;;17.30;99.90;;;;;;5021072;28;20273;-76
2022/04/14 07:16:59;;;;;;;6.82;6.10;;;17.20;99.90;;;;;;5023382;28;20200;-75
2022/04/14 07:19:26;;;;;;;5.90;5.20;;;17.20;99.90;;;;;;5024500;28;20226;-76
2022/04/14 07:21:53;;;;;;;6.53;5.88;;;17.40;99.90;;;;;;5027118;28;20560;-76
2022/04/14 07:24:21;;;;;;;7.22;6.47;;;17.40;99.90;;;;;;5024331;28;20281;-75
2022/04/14 07:26:49;;;;;;;9.02;6.75;;;17.30;99.90;;;;;;5020040;28;20196;-76
2022/04/14 07:29:16;;;;;;;9.27;6.78;;;17.30;99.90;;;;;;5022715;28;20218;-76
2022/04/14 07:31:45;;;;;;;6.65;5.97;;;17.30;99.90;;;;;;5025172;28;20195;-76
2022/04/14 07:34:14;;;;;;;6.55;5.95;;;17.40;99.90;;;;;;5022099;28;20233;-77
2022/04/14 07:36:41;;;;;;;6.38;5.70;;;17.70;99.90;;;;;;5023497;28;20561;-74
2022/04/14 07:39:09;;;;;;;7.20;5.57;;;17.90;99.90;;;;;;5023426;28;20314;-75
2022/04/14 07:41:36;;;;;;;7.85;5.90;;;18.10;99.90;;;;;;5027052;28;20385;-76
2022/04/14 07:44:05;;;;;;;7.13;5.95;;;18.30;99.90;;;;;;5020828;28;20235;-74
2022/04/14 07:46:35;;;;;;;5.88;5.28;;;18.50;99.90;;;;;;5020583;28;20349;-76
2022/04/14 07:49:02;;;;;;;9.27;5.80;;;18.70;99.90;;;;;;5022991;28;20908;-76
2022/04/14 07:51:29;;;;;;;6.40;5.80;;;18.50;99.90;;;;;;5021035;28;20250;-76
2022/04/14 07:53:56;;;;;;;6.32;5.63;;;18.40;99.90;;;;;;5023090;28;20714;-74
2022/04/14 07:56:23;;;;;;;7.13;5.90;;;18.30;99.90;;;;;;5026421;28;20199;-76
2022/04/14 07:58:50;;;;;;;5.80;5.30;;;18.30;99.90;;;;;;5023220;28;20222;-76
2022/04/14 08:01:19;;;;;;;5.50;5.00;;;18.30;99.90;;;;;;5018513;28;20252;-75
2022/04/14 08:03:47;;;;;;;6.32;5.13;;;18.30;99.90;;;;;;5025608;28;20600;-76
2022/04/14 08:06:14;;;;;;;7.35;5.57;;;18.30;99.90;;;;;;5023563;28;20230;-76
2022/04/14 08:08:42;;;;;;;6.22;5.10;;;18.40;99.90;;;;;;5017103;28;20202;-75
2022/04/14 08:11:10;;;;;;;7.45;5.78;;;18.70;99.90;;;;;;5022402;28;20211;-75
2022/04/14 08:13:38;;;;;;;5.38;4.72;;;19.10;99.90;;;;;;5018225;28;20235;-75
2022/04/14 08:16:06;;;;;;;6.03;5.20;;;19.20;99.90;;;;;;5021107;28;20311;-75
2022/04/14 08:18:37;;;;;;;5.93;5.00;;;19.40;99.90;;;;;;5025407;28;20290;-76
2022/04/14 08:21:04;;;;;;;5.80;5.28;;;19.50;99.90;;;;;;5028947;28;20219;-75
2022/04/14 08:23:32;;;;;;;8.45;4.90;;;19.60;99.90;;;;;;5021020;28;20226;-76
2022/04/14 08:26:01;;;;;;;6.82;4.88;;;19.60;99.90;;;;;;5023513;28;20207;-74
2022/04/14 08:28:28;;;;;;;7.20;5.93;;;19.70;99.90;;;;;;5018805;28;20207;-74
2022/04/14 08:30:56;;;;;;;5.75;5.03;;;19.50;99.90;;;;;;5020317;28;20200;-76
2022/04/14 08:33:24;;;;;;;6.47;5.70;;;19.50;99.90;;;;;;5018394;28;20655;-76
2022/04/14 08:35:55;;;;;;;5.88;5.30;;;19.60;99.90;;;;;;5025643;28;20222;-77
2022/04/14 08:38:22;;;;;;;5.80;5.30;;;19.60;99.90;;;;;;5022886;28;20238;-76
2022/04/14 08:41:02;;;;;;;6.97;5.50;;;19.70;99.90;;;;;;5021588;28;20227;-75
2022/04/14 08:43:34;;;;;;;6.63;5.13;;;19.90;99.90;;;;;;5024013;28;20237;-76
2022/04/14 08:46:03;;;;;;;5.50;5.05;;;19.90;99.90;;;;;;5028460;28;20436;-75
2022/04/14 08:48:30;;;;;;;5.75;5.25;;;19.70;99.90;;;;;;5029011;28;20227;-75
2022/04/14 08:50:59;;;;;;;5.35;4.85;;;20.00;99.90;;;;;;5026944;28;20471;-76
2022/04/14 08:53:28;;;;;;;5.90;4.82;;;20.30;99.90;;;;;;5027675;28;20520;-75
2022/04/14 08:55:56;;;;;;;6.10;5.50;;;20.60;99.90;;;;;;5024732;28;20651;-76
2022/04/14 08:58:31;;;;;;;5.70;5.15;;;20.80;99.90;;;;;;5027746;28;20573;-76
2022/04/14 09:01:00;;;;;;;6.90;5.93;;;20.80;99.90;;;;;;5026425;28;20670;-75
2022/04/14 09:03:28;;;;;;;6.07;5.47;;;20.60;99.90;;;;;;5021575;28;20228;-76
2022/04/14 09:05:56;;;;;;;9.30;6.32;;;20.70;99.90;;;;;;5025310;28;20212;-76
2022/04/14 09:08:24;;;;;;;5.68;4.90;;;20.80;99.90;;;;;;5026403;28;20241;-76
2022/04/14 09:10:52;;;;;;;7.55;5.13;;;20.70;99.90;;;;;;5026269;28;20796;-75
2022/04/14 09:13:20;;;;;;;8.85;5.68;;;20.60;99.90;;;;;;5027338;28;20226;-76
2022/04/14 09:15:47;;;;;;;5.38;4.88;;;20.60;99.90;;;;;;5047590;22;20230;-75
2022/04/14 09:18:16;;;;;;;6.15;4.95;;;20.40;99.90;;;;;;5039332;28;20191;-74
2022/04/14 09:20:48;;;;;;;7.38;5.45;;;20.60;99.90;;;;;;5038412;28;20273;-73
2022/04/14 09:23:21;;;;;;;6.25;5.38;;;20.80;99.90;;;;;;5039163;28;20281;-73
2022/04/14 09:25:51;;;;;;;7.50;5.32;;;21.10;99.90;;;;;;5034126;28;20215;-73
2022/04/14 09:28:20;;;;;;;8.13;5.20;;;21.30;99.90;;;;;;5023704;28;20196;-74
2022/04/14 09:31:06;;;;;;;5.13;4.57;;;21.50;99.90;;;;;;5026708;28;20227;-74
2022/04/14 09:33:34;;;;;;;6.55;5.85;;;21.70;99.90;;;;;;5019940;28;20711;-73
2022/04/14 09:36:10;;;;;;;6.07;5.30;;;21.70;99.90;;;;;;5026921;28;20227;-74
2022/04/14 09:38:53;;;;;;;6.95;5.30;;;21.70;99.90;;;;;;5024513;28;20225;-75
2022/04/14 09:41:33;;;;;;;6.22;5.38;;;21.70;99.90;;;;;;5029212;28;20209;-74
2022/04/14 09:44:02;;;;;;;5.63;5.07;;;21.40;99.90;;;;;;5029988;28;20204;-75
2022/04/14 09:46:29;;;;;;;6.72;5.65;;;21.40;99.90;;;;;;5020675;28;20207;-74
2022/04/14 09:49:07;;;;;;;5.35;4.85;;;21.60;99.90;;;;;;5023180;28;20342;-73
2022/04/14 09:51:35;;;;;;;6.43;5.80;;;21.70;99.90;;;;;;5031150;28;20226;-75
2022/04/14 09:54:15;;;;;;;6.25;5.65;;;21.90;99.90;;;;;;5018773;28;20222;-74
2022/04/14 09:56:46;;;;;;;7.28;6.28;;;22.00;99.90;;;;;;5017721;28;20720;-75
2022/04/14 09:59:14;;;;;;;5.45;4.95;;;22.20;99.90;;;;;;5020748;28;20249;-74
2022/04/14 10:01:42;;;;;;;6.15;5.55;;;22.20;99.90;;;;;;5019727;28;20915;-75
2022/04/14 10:04:29;;;;;;;6.40;5.50;;;22.40;99.90;;;;;;5026030;28;20204;-75
2022/04/14 10:07:04;;;;;;;5.60;4.68;;;22.40;99.90;;;;;;5021837;28;20424;-75
2022/04/14 10:09:31;;;;;;;8.15;5.55;;;22.40;99.90;;;;;;5026488;28;20284;-77
2022/04/14 10:12:00;;;;;;;6.65;5.10;;;22.40;99.90;;;;;;5022746;28;20223;-76
2022/04/14 10:14:27;;;;;;;6.22;5.65;;;22.40;99.90;;;;;;5023111;28;20215;-75
2022/04/14 10:16:57;;;;;;;5.70;5.20;;;22.40;99.90;;;;;;5025299;28;20716;-77
2022/04/14 10:19:24;;;;;;;7.55;5.47;;;22.60;99.90;;;;;;5025831;28;20273;-77
2022/04/14 10:21:52;;;;;;;5.47;4.97;;;22.60;99.90;;;;;;5030136;28;20704;-75
2022/04/14 10:24:23;;;;;;;6.30;5.35;;;22.70;99.90;;;;;;5018462;28;20199;-75
2022/04/14 10:26:51;;;;;;;6.65;4.85;;;22.80;99.90;;;;;;5024100;28;20228;-75
2022/04/14 10:29:22;;;;;;;6.28;5.25;;;23.00;99.90;;;;;;5021717;28;20200;-77
2022/04/14 10:31:53;;;;;;;8.35;5.82;;;22.90;99.90;;;;;;5021007;28;20220;-74
2022/04/14 10:34:22;;;;;;;5.18;4.75;;;22.90;99.90;;;;;;5023559;28;20692;-76
2022/04/14 10:36:50;;;;;;;7.32;6.05;;;22.80;99.90;;;;;;5038421;28;20210;-75
2022/04/14 10:39:19;;;;;;;5.70;5.18;;;22.70;99.90;;;;;;5023400;28;20289;-74
2022/04/14 10:41:50;;;;;;;8.70;5.53;;;22.60;99.90;;;;;;5024493;28;20685;-74
2022/04/14 10:44:23;;;;;;;5.80;4.95;;;22.60;99.90;;;;;;5022588;28;20199;-74
2022/04/14 10:46:51;;;;;;;6.32;5.32;;;22.80;99.90;;;;;;5017646;28;20279;-74
2022/04/14 10:49:25;;;;;;;5.78;5.18;;;22.90;99.90;;;;;;5023913;28;20205;-74
2022/04/14 10:51:54;;;;;;;6.30;5.38;;;23.10;99.90;;;;;;5020216;28;20269;-75
2022/04/14 10:54:21;;;;;;;6.10;5.55;;;23.20;99.90;;;;;;5015075;28;20204;-73
2022/04/14 10:56:50;;;;;;;8.65;5.45;;;23.40;99.90;;;;;;5017441;28;20239;-73
2022/04/14 10:59:21;;;;;;;6.43;5.53;;;23.50;99.90;;;;;;5025141;28;20262;-75
2022/04/14 11:02:02;;;;;;;6.95;5.25;;;23.50;99.90;;;;;;5022831;28;20242;-74
2022/04/14 11:04:35;;;;;;;5.88;5.18;;;23.40;99.90;;;;;;5018765;28;20219;-73
2022/04/14 11:07:08;;;;;;;8.07;5.45;;;23.50;99.90;;;;;;5020934;28;20322;-74
2022/04/14 11:09:49;;;;;;;7.53;5.57;;;23.50;99.90;;;;;;5024680;28;20226;-74
2022/04/14 11:12:19;;;;;;;6.95;5.60;;;23.60;99.90;;;;;;5020567;28;20430;-73
2022/04/14 11:14:52;;;;;;;6.35;5.30;;;23.50;99.90;;;;;;5019896;28;20227;-75
2022/04/14 11:18:00;;;;;;;5.20;4.70;;;23.60;99.90;;;;;;5019599;28;20238;-74
2022/04/14 11:21:04;;;;;;;4.32;3.83;;;23.60;99.90;;;;;;5023638;28;20503;-75
2022/04/14 11:23:31;;;;;;;4.20;3.80;;;23.60;99.90;;;;;;5021601;28;20239;-74
2022/04/14 11:26:07;;;;;;;5.50;3.40;;;23.70;99.90;;;;;;5025777;28;20219;-75
2022/04/14 11:28:39;;;;;;;3.42;3.13;;;23.70;99.90;;;;;;5024863;28;20221;-75
2022/04/14 11:31:24;;;;;;;4.93;3.50;;;24.00;99.90;;;;;;5037257;28;20191;-75
2022/04/14 11:33:53;;;;;;;3.97;3.00;;;24.10;99.90;;;;;;5021530;28;20212;-76
2022/04/14 11:36:22;;;;;;;5.57;3.92;;;24.20;99.90;;;;;;5028045;28;20760;-74
2022/04/14 11:38:53;;;;;;;4.25;3.38;;;24.10;99.90;;;;;;5026596;28;20215;-75
2022/04/14 11:41:36;;;;;;;3.28;2.97;;;24.00;99.90;;;;;;5029261;28;20198;-77
2022/04/14 11:44:05;;;;;;;5.18;3.25;;;24.20;99.80;;;;;;5031198;28;20222;-75
2022/04/14 11:46:37;;;;;;;3.42;2.50;;;24.40;99.90;;;;;;5022689;28;20488;-74
2022/04/14 11:49:05;;;;;;;3.28;2.70;;;24.80;99.90;;;;;;5030367;28;22857;-76
2022/04/14 11:51:32;;;;;;;4.72;3.40;;;25.00;99.30;;;;;;5022491;28;20295;-75
2022/04/14 11:53:59;;;;;;;5.07;3.50;;;24.80;98.70;;;;;;5022067;28;20219;-74
2022/04/14 11:56:26;;;;;;;6.90;3.83;;;24.70;99.40;;;;;;5020656;28;20234;-77
2022/04/14 11:58:54;;;;;;;3.88;2.75;;;24.80;99.30;;;;;;5024126;28;20215;-75
2022/04/14 12:01:22;;;;;;;3.67;2.80;;;24.90;98.80;;;;;;5027123;28;20618;-74
2022/04/14 12:03:50;;;;;;;3.03;2.38;;;24.90;98.40;;;;;;5024208;28;20227;-74
2022/04/14 12:06:18;;;;;;;2.50;2.30;;;25.10;98.20;;;;;;5019176;28;20466;-75
2022/04/14 12:08:55;;;;;;;2.85;2.60;;;25.10;97.80;;;;;;5026199;28;20253;-74
2022/04/14 12:11:24;;;;;;;5.07;2.70;;;25.10;96.80;;;;;;5025528;28;20206;-74
2022/04/14 12:13:51;;;;;;;2.88;2.60;;;24.90;97.90;;;;;;5027121;28;20738;-76
2022/04/14 12:16:19;;;;;;;2.53;2.33;;;24.80;98.90;;;;;;5031510;28;20223;-75
2022/04/14 12:18:55;;;;;;;3.58;2.58;;;24.80;98.80;;;;;;5023195;28;20239;-74
2022/04/14 12:21:23;;;;;;;4.18;2.97;;;25.10;97.30;;;;;;5031650;28;20296;-75
2022/04/14 12:23:52;;;;;;;3.90;2.70;;;25.10;98.30;;;;;;5027892;28;20314;-76
2022/04/14 12:26:19;;;;;;;5.03;2.80;;;25.10;98.90;;;;;;5040249;28;20701;-75
2022/04/14 12:28:48;;;;;;;3.75;2.63;;;25.00;98.20;;;;;;5030141;28;20417;-75
2022/04/14 12:31:17;;;;;;;3.72;2.80;;;25.00;98.30;;;;;;5029488;28;20195;-74
2022/04/14 12:33:58;;;;;;;3.33;2.90;;;25.10;98.30;;;;;;5029269;28;20215;-74
2022/04/14 12:36:34;;;;;;;3.58;2.50;;;24.90;97.20;;;;;;5029605;28;20219;-74
2022/04/14 12:39:05;;;;;;;3.55;2.20;;;25.00;96.60;;;;;;5028469;28;20753;-75
2022/04/14 12:41:36;;;;;;;3.75;2.22;;;25.10;96.50;;;;;;5027467;28;20249;-74
2022/04/14 12:44:04;;;;;;;4.15;2.30;;;25.20;94.80;;;;;;5032543;28;20219;-75
2022/04/14 12:46:37;;;;;;;2.03;1.90;;;25.20;95.50;;;;;;5031148;28;20192;-76
2022/04/14 12:49:10;;;;;;;2.90;2.00;;;25.30;95.40;;;;;;5025509;28;20289;-77
2022/04/14 12:51:39;;;;;;;2.00;1.75;;;25.10;94.70;;;;;;5032657;28;20196;-77
2022/04/14 12:54:06;;;;;;;2.05;1.40;;;24.80;94.20;;;;;;5030125;28;20222;-74